createdAt,value
2023-02-16T00:01:52.516Z,101638.36
2023-02-16T00:04:24.112Z,101634.84
2023-02-16T00:06:51.361Z,101630.16
2023-02-16T00:09:18.676Z,101630.16
2023-02-16T00:12:05.013Z,101632.72
2023-02-16T00:14:36.935Z,101634.14
2023-02-16T00:17:04.148Z,101630.84
2023-02-16T00:19:38.553Z,101634.58
2023-02-16T00:22:06.473Z,101631.58
2023-02-16T00:24:33.473Z,101629.83
2023-02-16T00:27:00.280Z,101628.54
2023-02-16T00:29:30.296Z,101627.91
2023-02-16T00:31:59.088Z,101632.30
2023-02-16T00:34:33.101Z,101629.92
2023-02-16T00:37:02.089Z,101627.39
2023-02-16T00:39:29.037Z,101628.58
2023-02-16T00:42:00.512Z,101627.39
2023-02-16T00:44:41.261Z,101628.42
2023-02-16T00:47:44.859Z,101632.78
2023-02-16T00:50:24.876Z,101630.41
2023-02-16T00:52:51.695Z,101631.30
2023-02-16T00:55:23.192Z,101625.20
2023-02-16T00:57:57.883Z,101623.02
2023-02-16T01:00:31.156Z,101620.09
2023-02-16T01:03:00.303Z,101624.15
2023-02-16T01:05:30.397Z,101622.55
2023-02-16T01:08:19.194Z,101622.76
2023-02-16T01:11:06.783Z,101620.65
2023-02-16T01:13:46.606Z,101614.89
2023-02-16T01:16:35.008Z,101610.99
2023-02-16T01:19:02.324Z,101600.92
2023-02-16T01:21:29.211Z,101601.41
2023-02-16T01:23:56.286Z,101604.02
2023-02-16T01:26:23.677Z,101604.79
2023-02-16T01:28:50.577Z,101603.77
2023-02-16T01:31:17.844Z,101607.66
2023-02-16T01:33:44.901Z,101602.67
2023-02-16T01:36:27.865Z,101602.08
2023-02-16T01:38:55.196Z,101602.85
2023-02-16T01:41:27.982Z,101599.02
2023-02-16T01:44:04.948Z,101602.75
2023-02-16T01:46:41.274Z,101602.74
2023-02-16T01:49:18.990Z,101604.23
2023-02-16T01:52:04.368Z,101606.39
2023-02-16T01:54:34.178Z,101605.19
2023-02-16T01:57:13.284Z,101610.02
2023-02-16T01:59:43.485Z,101603.92
2023-02-16T02:02:20.673Z,101605.11
2023-02-16T02:05:35.187Z,101604.58
2023-02-16T02:08:06.919Z,101604.47
2023-02-16T02:10:43.545Z,101604.58
2023-02-16T02:13:34.004Z,101603.86
2023-02-16T02:16:01.547Z,101601.67
2023-02-16T02:18:29.601Z,101603.86
2023-02-16T02:21:56.951Z,101604.69
2023-02-16T02:24:24.417Z,101607.48
2023-02-16T02:27:15.922Z,101610.44
2023-02-16T02:30:08.379Z,101615.45
2023-02-16T02:32:59.994Z,101612.14
2023-02-16T02:35:27.910Z,101617.85
2023-02-16T02:38:32.756Z,101613.81
2023-02-16T02:41:14.654Z,101609.60
2023-02-16T02:43:44.712Z,101610.03
2023-02-16T02:46:23.149Z,101607.88
2023-02-16T02:48:50.316Z,101608.77
2023-02-16T02:51:29.338Z,101610.12
2023-02-16T02:54:55.429Z,101610.00
2023-02-16T02:58:00.869Z,101606.57
2023-02-16T03:00:41.140Z,101612.04
2023-02-16T03:03:22.338Z,101611.21
2023-02-16T03:05:52.012Z,101613.39
2023-02-16T03:08:22.570Z,101614.88
2023-02-16T03:11:17.619Z,101608.81
2023-02-16T03:13:50.807Z,101606.86
2023-02-16T03:16:41.882Z,101606.98
2023-02-16T03:19:28.003Z,101605.41
2023-02-16T03:22:14.210Z,101599.31
2023-02-16T03:24:59.633Z,101598.68
2023-02-16T03:27:47.111Z,101596.96
2023-02-16T03:30:14.566Z,101597.86
2023-02-16T03:32:43.008Z,101600.79
2023-02-16T03:35:12.401Z,101597.73
2023-02-16T03:37:40.649Z,101594.44
2023-02-16T03:40:28.687Z,101592.39
2023-02-16T03:42:56.703Z,101588.36
2023-02-16T03:45:24.319Z,101592.02
2023-02-16T03:47:51.142Z,101583.83
2023-02-16T03:50:19.161Z,101582.04
2023-02-16T03:52:46.624Z,101582.62
2023-02-16T03:55:13.862Z,101587.86
2023-02-16T03:57:41.538Z,101591.41
2023-02-16T04:00:08.903Z,101591.13
2023-02-16T04:02:43.654Z,101593.61
2023-02-16T04:05:10.630Z,101595.94
2023-02-16T04:07:38.510Z,101585.62
2023-02-16T04:10:06.223Z,101588.56
2023-02-16T04:12:35.799Z,101585.36
2023-02-16T04:15:07.757Z,101579.36
2023-02-16T04:17:35.494Z,101578.26
2023-02-16T04:20:04.351Z,101575.86
2023-02-16T04:22:40.309Z,101571.69
2023-02-16T04:25:08.235Z,101573.01
2023-02-16T04:27:36.794Z,101566.84
2023-02-16T04:30:04.388Z,101569.40
2023-02-16T04:32:31.531Z,101563.05
2023-02-16T04:34:58.580Z,101563.17
2023-02-16T04:37:25.398Z,101558.30
2023-02-16T04:39:52.855Z,101550.79
2023-02-16T04:42:19.786Z,101548.73
2023-02-16T04:44:46.710Z,101548.55
2023-02-16T04:47:13.938Z,101543.50
2023-02-16T04:49:41.843Z,101545.62
2023-02-16T04:52:13.468Z,101549.38
2023-02-16T04:54:40.699Z,101548.23
2023-02-16T04:57:07.740Z,101550.52
2023-02-16T04:59:34.580Z,101547.95
2023-02-16T05:02:01.786Z,101545.81
2023-02-16T05:04:29.000Z,101550.73
2023-02-16T05:06:55.880Z,101543.85
2023-02-16T05:09:26.512Z,101544.16
2023-02-16T05:12:15.485Z,101548.51
2023-02-16T05:14:44.278Z,101545.75
2023-02-16T05:17:13.479Z,101547.89
2023-02-16T05:19:58.844Z,101544.19
2023-02-16T05:22:25.772Z,101547.20
2023-02-16T05:24:52.752Z,101543.30
2023-02-16T05:27:24.200Z,101540.39
2023-02-16T05:29:51.486Z,101540.88
2023-02-16T05:32:18.442Z,101540.60
2023-02-16T05:34:45.818Z,101540.09
2023-02-16T05:37:13.545Z,101542.89
2023-02-16T05:39:40.453Z,101540.54
2023-02-16T05:42:08.237Z,101542.45
2023-02-16T05:44:35.904Z,101539.12
2023-02-16T05:47:02.867Z,101542.33
2023-02-16T05:49:30.101Z,101545.20
2023-02-16T05:51:59.687Z,101542.48
2023-02-16T05:54:28.827Z,101542.11
2023-02-16T05:57:01.022Z,101541.27
2023-02-16T05:59:27.905Z,101541.60
2023-02-16T06:01:55.061Z,101541.45
2023-02-16T06:04:23.995Z,101535.80
2023-02-16T06:06:51.228Z,101534.98
2023-02-16T06:09:18.125Z,101539.69
2023-02-16T06:11:46.269Z,101538.25
2023-02-16T06:14:18.985Z,101537.53
2023-02-16T06:16:50.865Z,101538.61
2023-02-16T06:19:18.564Z,101542.62
2023-02-16T06:21:45.504Z,101548.87
2023-02-16T06:24:12.635Z,101546.30
2023-02-16T06:26:39.746Z,101545.89
2023-02-16T06:29:06.879Z,101545.80
2023-02-16T06:31:36.627Z,101545.48
2023-02-16T06:34:04.437Z,101543.65
2023-02-16T06:36:31.894Z,101539.23
2023-02-16T06:38:58.958Z,101540.77
2023-02-16T06:41:39.647Z,101542.50
2023-02-16T06:44:09.031Z,101545.45
2023-02-16T06:46:36.679Z,101542.78
2023-02-16T06:49:04.220Z,101543.95
2023-02-16T06:51:31.329Z,101540.52
2023-02-16T06:53:58.229Z,101539.02
2023-02-16T06:56:25.369Z,101540.48
2023-02-16T06:58:52.209Z,101535.08
2023-02-16T07:01:22.531Z,101533.88
2023-02-16T07:03:51.059Z,101527.96
2023-02-16T07:06:18.634Z,101528.59
2023-02-16T07:08:51.537Z,101531.33
2023-02-16T07:11:19.364Z,101524.27
2023-02-16T07:13:46.350Z,101525.23
2023-02-16T07:16:14.189Z,101523.06
2023-02-16T07:18:43.369Z,101520.53
2023-02-16T07:21:12.167Z,101517.96
2023-02-16T07:23:39.763Z,101518.05
2023-02-16T07:26:06.700Z,101516.28
2023-02-16T07:28:34.889Z,101515.05
2023-02-16T07:31:07.495Z,101510.34
2023-02-16T07:33:34.818Z,101504.45
2023-02-16T07:36:01.656Z,101500.12
2023-02-16T07:38:30.266Z,101501.41
2023-02-16T07:40:57.778Z,101494.59
2023-02-16T07:43:25.048Z,101496.35
2023-02-16T07:45:52.115Z,101495.34
2023-02-16T07:48:18.949Z,101492.43
2023-02-16T07:50:46.368Z,101490.65
2023-02-16T07:53:13.318Z,101488.55
2023-02-16T07:55:45.355Z,101480.36
2023-02-16T07:58:26.671Z,101481.88
2023-02-16T08:00:55.562Z,101478.30
2023-02-16T08:03:23.636Z,101476.31
2023-02-16T08:05:50.482Z,101476.50
2023-02-16T08:08:17.502Z,101473.40
2023-02-16T08:10:49.828Z,101471.55
2023-02-16T08:13:16.884Z,101470.95
2023-02-16T08:15:44.245Z,101466.89
2023-02-16T08:18:14.819Z,101468.10
2023-02-16T08:21:01.546Z,101466.54
2023-02-16T08:23:29.097Z,101468.38
2023-02-16T08:25:58.464Z,101462.74
2023-02-16T08:28:28.114Z,101463.81
2023-02-16T08:30:54.960Z,101461.81
2023-02-16T08:33:22.952Z,101460.29
2023-02-16T08:35:52.834Z,101463.16
2023-02-16T08:38:20.374Z,101462.11
2023-02-16T08:40:48.472Z,101462.77
2023-02-16T08:43:15.265Z,101461.17
2023-02-16T08:45:48.133Z,101460.40
2023-02-16T08:48:16.031Z,101461.10
2023-02-16T08:50:46.615Z,101458.40
2023-02-16T08:53:16.590Z,101456.15
2023-02-16T08:55:53.733Z,101459.59
2023-02-16T08:58:22.055Z,101456.04
2023-02-16T09:00:49.248Z,101458.16
2023-02-16T09:03:18.593Z,101458.70
2023-02-16T09:05:47.095Z,101457.34
2023-02-16T09:08:15.410Z,101451.00
2023-02-16T09:10:42.684Z,101448.37
2023-02-16T09:13:15.529Z,101450.16
2023-02-16T09:15:43.058Z,101441.95
2023-02-16T09:18:12.198Z,101441.78
2023-02-16T09:20:40.667Z,101437.04
2023-02-16T09:23:08.009Z,101435.16
2023-02-16T09:25:36.054Z,101432.23
2023-02-16T09:28:03.375Z,101429.31
2023-02-16T09:30:31.196Z,101427.66
2023-02-16T09:32:59.869Z,101424.57
2023-02-16T09:35:28.849Z,101425.00
2023-02-16T09:37:57.378Z,101423.44
2023-02-16T09:40:24.270Z,101418.83
2023-02-16T09:42:57.209Z,101421.16
2023-02-16T09:45:24.465Z,101418.45
2023-02-16T09:47:53.797Z,101417.55
2023-02-16T09:50:50.766Z,101413.88
2023-02-16T09:53:24.295Z,101408.30
2023-02-16T09:56:02.611Z,101405.70
2023-02-16T09:58:39.142Z,101402.80
2023-02-16T10:01:43.083Z,101400.36
2023-02-16T10:04:34.366Z,101393.86
2023-02-16T10:07:22.760Z,101387.67
2023-02-16T10:09:52.846Z,101386.58
2023-02-16T10:12:23.316Z,101381.23
2023-02-16T10:14:52.448Z,101376.73
2023-02-16T10:17:23.685Z,101372.20
2023-02-16T10:19:54.259Z,101370.36
2023-02-16T10:22:52.524Z,101365.55
2023-02-16T10:25:38.906Z,101366.77
2023-02-16T10:28:45.086Z,101369.39
2023-02-16T10:31:35.943Z,101366.00
2023-02-16T10:34:20.252Z,101367.02
2023-02-16T10:37:01.267Z,101363.12
2023-02-16T10:40:05.765Z,101360.21
2023-02-16T10:42:41.118Z,101359.66
2023-02-16T10:45:40.207Z,101355.90
2023-02-16T10:48:09.502Z,101350.59
2023-02-16T10:50:38.417Z,101346.05
2023-02-16T10:53:13.205Z,101340.36
2023-02-16T10:55:41.439Z,101337.90
2023-02-16T10:58:33.360Z,101335.96
2023-02-16T11:01:15.980Z,101334.31
2023-02-16T11:03:46.037Z,101327.19
2023-02-16T11:06:17.893Z,101324.36
2023-02-16T11:08:53.716Z,101320.61
2023-02-16T11:11:22.601Z,101316.71
2023-02-16T11:13:49.549Z,101318.59
2023-02-16T11:16:21.464Z,101315.34
2023-02-16T11:18:55.254Z,101312.45
2023-02-16T11:21:22.124Z,101310.46
2023-02-16T11:23:58.739Z,101304.05
2023-02-16T11:26:26.395Z,101300.96
2023-02-16T11:29:06.574Z,101295.00
2023-02-16T11:31:37.555Z,101290.56
2023-02-16T11:34:30.366Z,101287.95
2023-02-16T11:37:05.023Z,101284.66
2023-02-16T11:39:37.160Z,101279.15
2023-02-16T11:42:09.915Z,101274.29
2023-02-16T11:44:43.941Z,101269.28
2023-02-16T11:47:33.968Z,101266.29
2023-02-16T11:50:20.472Z,101262.33
2023-02-16T11:52:49.593Z,101257.83
2023-02-16T11:55:26.964Z,101251.42
2023-02-16T11:57:55.911Z,101251.20
2023-02-16T12:00:23.405Z,101247.86
2023-02-16T12:03:14.226Z,101243.25
2023-02-16T12:05:58.326Z,101235.64
2023-02-16T12:08:32.825Z,101233.47
2023-02-16T12:11:02.948Z,101230.87
2023-02-16T12:13:49.683Z,101225.25
2023-02-16T12:17:01.394Z,101215.40
2023-02-16T12:19:42.436Z,101208.76
2023-02-16T12:22:21.511Z,101205.54
2023-02-16T12:24:57.891Z,101203.08
2023-02-16T12:27:31.482Z,101193.45
2023-02-16T12:30:03.725Z,101191.97
2023-02-16T12:32:57.337Z,101192.00
2023-02-16T12:35:49.219Z,101190.05
2023-02-16T12:38:29.151Z,101188.86
2023-02-16T12:41:00.180Z,101181.30
2023-02-16T12:43:41.338Z,101181.59
2023-02-16T12:46:17.109Z,101175.69
2023-02-16T12:49:02.051Z,101178.10
2023-02-16T12:51:35.024Z,101177.21
2023-02-16T12:54:15.896Z,101172.93
2023-02-16T12:56:46.565Z,101172.50
2023-02-16T12:59:14.415Z,101168.02
2023-02-16T13:01:41.609Z,101165.25
2023-02-16T13:04:33.359Z,101164.20
2023-02-16T13:07:09.180Z,101162.98
2023-02-16T13:09:41.265Z,101156.65
2023-02-16T13:12:31.141Z,101158.06
2023-02-16T13:15:11.910Z,101160.79
2023-02-16T13:17:41.427Z,101160.79
2023-02-16T13:20:14.491Z,101161.91
2023-02-16T13:23:12.694Z,101158.25
2023-02-16T13:26:10.431Z,101152.67
2023-02-16T13:28:56.317Z,101147.56
2023-02-16T13:31:53.940Z,101148.70
2023-02-16T13:34:40.823Z,101147.24
2023-02-16T13:37:23.020Z,101145.02
2023-02-16T13:40:10.241Z,101143.84
2023-02-16T13:42:51.679Z,101143.86
2023-02-16T13:45:23.912Z,101139.55
2023-02-16T13:47:52.838Z,101137.69
2023-02-16T13:50:23.449Z,101134.02
2023-02-16T13:52:51.484Z,101128.04
2023-02-16T13:55:31.095Z,101128.19
2023-02-16T13:58:02.171Z,101126.54
2023-02-16T14:00:36.067Z,101125.15
2023-02-16T14:03:37.593Z,101116.26
2023-02-16T14:06:23.982Z,101111.63
2023-02-16T14:09:15.618Z,101109.05
2023-02-16T14:11:52.890Z,101105.26
2023-02-16T14:14:30.900Z,101102.39
2023-02-16T14:17:23.390Z,101104.24
2023-02-16T14:20:11.288Z,101098.68
2023-02-16T14:22:38.162Z,101094.68
2023-02-16T14:25:22.008Z,101090.45
2023-02-16T14:27:53.904Z,101088.86
2023-02-16T14:30:26.702Z,101086.23
2023-02-16T14:32:58.551Z,101086.13
2023-02-16T14:35:33.587Z,101084.55
2023-02-16T14:38:15.759Z,101080.54
2023-02-16T14:40:52.909Z,101079.70
2023-02-16T14:43:56.007Z,101078.65
2023-02-16T14:46:44.862Z,101073.54
2023-02-16T14:49:49.261Z,101070.21
2023-02-16T14:52:19.090Z,101066.15
2023-02-16T14:55:08.461Z,101060.05
2023-02-16T14:58:00.317Z,101062.74
2023-02-16T15:00:28.689Z,101067.66
2023-02-16T15:03:02.851Z,101064.22
2023-02-16T15:05:32.740Z,101057.73
2023-02-16T15:08:24.851Z,101053.98
2023-02-16T15:10:55.341Z,101052.96
2023-02-16T15:13:26.511Z,101053.77
2023-02-16T15:15:57.959Z,101053.27
2023-02-16T15:18:31.564Z,101049.75
2023-02-16T15:21:00.914Z,101054.91
2023-02-16T15:23:35.136Z,101052.48
2023-02-16T15:26:04.366Z,101049.77
2023-02-16T15:28:38.890Z,101046.15
2023-02-16T15:31:08.695Z,101045.44
2023-02-16T15:33:59.800Z,101041.42
2023-02-16T15:36:32.560Z,101046.12
2023-02-16T15:39:02.003Z,101042.33
2023-02-16T15:41:31.629Z,101041.11
2023-02-16T15:43:59.156Z,101042.17
2023-02-16T15:46:31.668Z,101038.36
2023-02-16T15:49:19.422Z,101035.15
2023-02-16T15:51:46.576Z,101035.32
2023-02-16T15:54:13.624Z,101033.08
2023-02-16T15:56:46.817Z,101032.67
2023-02-16T15:59:38.263Z,101033.22
2023-02-16T16:02:21.002Z,101030.39
2023-02-16T16:04:56.649Z,101029.48
2023-02-16T16:07:31.356Z,101024.05
2023-02-16T16:09:58.407Z,101023.53
2023-02-16T16:12:26.600Z,101018.45
2023-02-16T16:15:03.830Z,101016.47
2023-02-16T16:17:32.691Z,101015.95
2023-02-16T16:20:18.420Z,101012.54
2023-02-16T16:22:45.500Z,101007.75
2023-02-16T16:25:39.277Z,101005.16
2023-02-16T16:28:08.327Z,101006.31
2023-02-16T16:30:36.546Z,101001.89
2023-02-16T16:33:08.623Z,101000.59
2023-02-16T16:35:41.040Z,100993.36
2023-02-16T16:38:24.824Z,100993.08
2023-02-16T16:41:03.575Z,100989.86
2023-02-16T16:43:51.754Z,100987.26
2023-02-16T16:46:32.566Z,100986.27
2023-02-16T16:49:00.489Z,100987.78
2023-02-16T16:51:38.191Z,100983.96
2023-02-16T16:54:24.605Z,100983.07
2023-02-16T16:56:51.520Z,100974.73
2023-02-16T16:59:18.309Z,100974.20
2023-02-16T17:01:47.694Z,100973.48
2023-02-16T17:04:14.732Z,100968.54
2023-02-16T17:06:43.442Z,100964.70
2023-02-16T17:09:10.320Z,100961.82
2023-02-16T17:11:37.808Z,100958.64
2023-02-16T17:14:10.428Z,100957.71
2023-02-16T17:16:40.918Z,100951.01
2023-02-16T17:19:11.646Z,100948.44
2023-02-16T17:21:38.878Z,100941.96
2023-02-16T17:24:07.091Z,100942.38
2023-02-16T17:26:34.235Z,100942.75
2023-02-16T17:29:02.172Z,100941.91
2023-02-16T17:31:30.189Z,100941.79
2023-02-16T17:33:59.776Z,100935.20
2023-02-16T17:36:27.441Z,100938.41
2023-02-16T17:38:54.683Z,100936.41
2023-02-16T17:41:23.780Z,100933.77
2023-02-16T17:43:50.892Z,100927.39
2023-02-16T17:46:19.741Z,100924.16
2023-02-16T17:48:51.337Z,100917.94
2023-02-16T17:51:19.481Z,100915.13
2023-02-16T17:53:46.934Z,100912.61
2023-02-16T17:56:16.412Z,100907.09
2023-02-16T17:58:44.577Z,100905.87
2023-02-16T18:01:17.494Z,100900.59
2023-02-16T18:03:49.782Z,100900.83
2023-02-16T18:06:18.699Z,100895.16
2023-02-16T18:08:46.482Z,100894.69
2023-02-16T18:11:13.846Z,100893.86
2023-02-16T18:13:41.059Z,100887.39
2023-02-16T18:16:19.039Z,100890.64
2023-02-16T18:18:48.945Z,100886.34
2023-02-16T18:21:15.780Z,100882.51
2023-02-16T18:23:43.301Z,100882.56
2023-02-16T18:26:14.688Z,100879.20
2023-02-16T18:28:42.437Z,100872.33
2023-02-16T18:31:10.021Z,100869.83
2023-02-16T18:33:38.602Z,100865.81
2023-02-16T18:36:06.271Z,100864.51
2023-02-16T18:38:33.936Z,100867.04
2023-02-16T18:41:00.947Z,100867.02
2023-02-16T18:43:29.046Z,100867.41
2023-02-16T18:45:56.588Z,100866.98
2023-02-16T18:48:24.364Z,100867.59
2023-02-16T18:50:51.577Z,100868.33
2023-02-16T18:53:18.471Z,100865.65
2023-02-16T18:55:45.558Z,100863.77
2023-02-16T18:58:13.634Z,100866.51
2023-02-16T19:00:40.654Z,100865.40
2023-02-16T19:03:07.599Z,100864.18
2023-02-16T19:05:35.631Z,100866.91
2023-02-16T19:08:02.881Z,100861.61
2023-02-16T19:10:30.421Z,100853.23
2023-02-16T19:12:57.688Z,100849.26
2023-02-16T19:15:25.826Z,100845.39
2023-02-16T19:17:53.299Z,100845.59
2023-02-16T19:20:20.605Z,100842.53
2023-02-16T19:22:48.500Z,100836.70
2023-02-16T19:25:15.581Z,100834.86
2023-02-16T19:27:44.210Z,100832.79
2023-02-16T19:30:11.667Z,100832.83
2023-02-16T19:32:40.858Z,100821.92
2023-02-16T19:35:09.305Z,100821.80
2023-02-16T19:37:39.046Z,100817.27
2023-02-16T19:40:12.856Z,100811.73
2023-02-16T19:42:56.846Z,100806.55
2023-02-16T19:45:44.792Z,100802.73
2023-02-16T19:48:36.877Z,100803.90
2023-02-16T19:51:17.915Z,100795.84
2023-02-16T19:53:45.149Z,100789.96
2023-02-16T19:56:14.415Z,100786.84
2023-02-16T19:58:44.552Z,100784.41
2023-02-16T20:01:16.950Z,100780.08
2023-02-16T20:03:44.354Z,100778.09
2023-02-16T20:06:25.504Z,100776.14
2023-02-16T20:08:55.326Z,100773.95
2023-02-16T20:11:24.047Z,100769.83
2023-02-16T20:13:51.296Z,100765.73
2023-02-16T20:16:19.180Z,100759.33
2023-02-16T20:18:46.818Z,100759.71
2023-02-16T20:21:15.836Z,100755.55
2023-02-16T20:23:43.287Z,100749.59
2023-02-16T20:26:20.075Z,100753.99
2023-02-16T20:28:48.303Z,100749.98
2023-02-16T20:31:18.091Z,100744.13
2023-02-16T20:33:45.253Z,100745.00
2023-02-16T20:36:12.383Z,100742.77
2023-02-16T20:38:39.520Z,100737.00
2023-02-16T20:41:06.795Z,100740.82
2023-02-16T20:43:34.890Z,100737.57
2023-02-16T20:46:03.339Z,100738.71
2023-02-16T20:48:31.430Z,100735.18
2023-02-16T20:51:07.429Z,100731.66
2023-02-16T20:53:35.526Z,100731.17
2023-02-16T20:56:25.040Z,100728.77
2023-02-16T20:58:56.773Z,100729.14
2023-02-16T21:01:29.618Z,100724.31
2023-02-16T21:04:10.322Z,100725.48
2023-02-16T21:06:41.262Z,100718.83
2023-02-16T21:09:08.840Z,100719.85
2023-02-16T21:11:37.248Z,100715.34
2023-02-16T21:14:11.082Z,100706.91
2023-02-16T21:16:45.955Z,100703.05
2023-02-16T21:19:22.607Z,100700.93
2023-02-16T21:21:53.638Z,100695.81
2023-02-16T21:24:21.281Z,100695.83
2023-02-16T21:26:57.543Z,100692.74
2023-02-16T21:29:25.526Z,100692.37
2023-02-16T21:31:53.816Z,100686.73
2023-02-16T21:34:21.025Z,100686.19
2023-02-16T21:36:48.214Z,100683.72
2023-02-16T21:39:15.682Z,100681.98
2023-02-16T21:41:42.438Z,100680.99
2023-02-16T21:44:11.746Z,100676.26
2023-02-16T21:46:45.970Z,100674.52
2023-02-16T21:49:17.639Z,100672.14
2023-02-16T21:51:45.323Z,100668.63
2023-02-16T21:54:15.792Z,100667.89
2023-02-16T21:56:49.668Z,100662.98
2023-02-16T21:59:22.237Z,100668.28
2023-02-16T22:01:53.059Z,100660.30
2023-02-16T22:04:21.881Z,100650.93
2023-02-16T22:06:49.697Z,100649.55
2023-02-16T22:09:19.375Z,100642.17
2023-02-16T22:11:46.291Z,100637.91
2023-02-16T22:14:13.126Z,100638.76
2023-02-16T22:16:40.148Z,100636.56
2023-02-16T22:19:10.198Z,100635.15
2023-02-16T22:21:38.263Z,100634.66
2023-02-16T22:24:06.208Z,100631.86
2023-02-16T22:26:33.956Z,100628.98
2023-02-16T22:29:04.441Z,100626.70
2023-02-16T22:31:32.089Z,100622.96
2023-02-16T22:34:03.890Z,100625.52
2023-02-16T22:36:30.835Z,100621.52
2023-02-16T22:39:00.279Z,100621.88
2023-02-16T22:41:27.702Z,100623.10
2023-02-16T22:43:56.759Z,100623.98
2023-02-16T22:46:23.639Z,100621.66
2023-02-16T22:48:57.829Z,100619.80
2023-02-16T22:51:28.999Z,100614.73
2023-02-16T22:54:02.062Z,100609.48
2023-02-16T22:56:33.459Z,100603.82
2023-02-16T22:59:05.152Z,100604.06
2023-02-16T23:02:05.192Z,100601.52
2023-02-16T23:04:31.991Z,100601.14
2023-02-16T23:06:58.959Z,100600.90
2023-02-16T23:09:31.984Z,100598.98
2023-02-16T23:11:59.085Z,100595.87
2023-02-16T23:14:29.140Z,100593.07
2023-02-16T23:16:56.196Z,100590.02
2023-02-16T23:19:24.757Z,100588.95
2023-02-16T23:21:52.548Z,100589.00
2023-02-16T23:24:20.751Z,100587.09
2023-02-16T23:26:48.292Z,100591.23
2023-02-16T23:29:15.414Z,100589.31
2023-02-16T23:31:44.098Z,100589.35
2023-02-16T23:34:11.382Z,100592.27
2023-02-16T23:36:38.968Z,100590.83
2023-02-16T23:39:08.745Z,100589.80
2023-02-16T23:41:35.894Z,100584.16
2023-02-16T23:44:04.272Z,100580.02
2023-02-16T23:46:31.257Z,100577.70
2023-02-16T23:48:58.525Z,100575.45
2023-02-16T23:51:25.606Z,100573.20
2023-02-16T23:53:53.118Z,100571.25
2023-02-16T23:56:21.750Z,100567.20
2023-02-16T23:58:49.008Z,100565.81
